Time;durP1;ratioP1;P1;durP2;ratioP2;P2;SDS_P1;SDS_P2;PMS_P1;PMS_P2;Temp;Humidity;BMP_temperature;BMP_pressure;BME280_temperature;BME280_humidity;BME280_pressure;Samples;Min_cycle;Max_cycle;Signal;HPM_P1;HPM_P2
2023/06/30 00:02:24;;;;;;;7.22;2.72;;;;;;;;;;4931773;29;20102;-85
2023/06/30 00:04:50;;;;;;;7.43;2.70;;;;;;;;;;4934158;29;20076;-86
2023/06/30 00:07:20;;;;;;;3.42;2.15;;;;;;;;;;4916921;29;20391;-85
2023/06/30 00:09:47;;;;;;;4.65;2.75;;;;;;;;;;4932434;29;20086;-87
2023/06/30 00:12:28;;;;;;;5.38;2.53;;;;;;;;;;4915828;29;20020;-85
2023/06/30 00:14:54;;;;;;;4.53;2.85;;;;;;;;;;4914414;29;20032;-85
2023/06/30 00:17:19;;;;;;;5.60;2.25;;;;;;;;;;4933406;29;20088;-85
2023/06/30 00:19:44;;;;;;;4.88;2.65;;;;;;;;;;4934948;29;20518;-86
2023/06/30 00:22:09;;;;;;;4.75;2.55;;;;;;;;;;4934351;29;20092;-85
2023/06/30 00:24:35;;;;;;;6.30;2.90;;;;;;;;;;4917290;29;20390;-85
2023/06/30 00:27:01;;;;;;;3.08;2.22;;;;;;;;;;4934331;29;20445;-86
2023/06/30 00:29:27;;;;;;;5.10;2.50;;;;;;;;;;4933955;29;20027;-85
2023/06/30 00:31:52;;;;;;;3.97;2.65;;;;;;;;;;4934355;29;20035;-86
2023/06/30 00:34:17;;;;;;;6.20;2.83;;;;;;;;;;4916721;29;20023;-85
2023/06/30 00:36:43;;;;;;;8.57;2.97;;;;;;;;;;4932308;29;20039;-85
2023/06/30 00:39:08;;;;;;;5.00;2.67;;;;;;;;;;4934669;29;20386;-85
2023/06/30 00:41:33;;;;;;;5.00;2.90;;;;;;;;;;4939195;29;20315;-84
2023/06/30 00:43:59;;;;;;;5.78;2.85;;;;;;;;;;4936757;29;20457;-85
2023/06/30 00:46:25;;;;;;;3.88;2.47;;;;;;;;;;4941415;29;20110;-85
2023/06/30 00:49:10;;;;;;;4.72;2.58;;;;;;;;;;4930962;29;20044;-85
2023/06/30 00:51:36;;;;;;;7.00;2.80;;;;;;;;;;4933998;29;20385;-86
2023/06/30 00:54:01;;;;;;;5.70;2.85;;;;;;;;;;4945700;29;20031;-85
2023/06/30 00:56:26;;;;;;;3.60;2.55;;;;;;;;;;4933682;29;20104;-86
2023/06/30 00:58:52;;;;;;;5.63;2.60;;;;;;;;;;4934432;29;20402;-85
2023/06/30 01:01:20;;;;;;;4.65;2.83;;;;;;;;;;4947157;29;20035;-85
2023/06/30 01:03:50;;;;;;;6.35;2.80;;;;;;;;;;4933556;29;20030;-85
2023/06/30 01:06:24;;;;;;;4.30;2.78;;;;;;;;;;4927731;29;20096;-85
2023/06/30 01:08:56;;;;;;;6.85;3.05;;;;;;;;;;4920414;29;20103;-85
2023/06/30 01:11:24;;;;;;;5.20;2.90;;;;;;;;;;4940361;29;20035;-85
2023/06/30 01:13:50;;;;;;;7.13;3.42;;;;;;;;;;4918148;29;20027;-86
2023/06/30 01:16:17;;;;;;;5.10;3.10;;;;;;;;;;4943671;29;20023;-85
2023/06/30 01:18:45;;;;;;;7.43;3.05;;;;;;;;;;4919842;29;20083;-85
2023/06/30 01:21:14;;;;;;;3.95;3.05;;;;;;;;;;4923083;29;20024;-86
2023/06/30 01:23:51;;;;;;;5.80;3.00;;;;;;;;;;4943197;29;20126;-85
2023/06/30 01:26:16;;;;;;;4.97;2.88;;;;;;;;;;4939570;29;20780;-85
2023/06/30 01:28:42;;;;;;;6.03;3.50;;;;;;;;;;4932394;29;20113;-86
2023/06/30 01:31:09;;;;;;;4.93;2.80;;;;;;;;;;4931799;29;20074;-85
2023/06/30 01:33:38;;;;;;;5.80;2.83;;;;;;;;;;4954084;28;20107;-85
2023/06/30 01:36:06;;;;;;;4.55;3.33;;;;;;;;;;4953682;29;20023;-85
2023/06/30 01:38:31;;;;;;;5.63;3.42;;;;;;;;;;4941372;29;20038;-85
2023/06/30 01:40:58;;;;;;;4.53;3.72;;;;;;;;;;4925316;29;20039;-85
2023/06/30 01:43:25;;;;;;;7.72;3.28;;;;;;;;;;4946180;29;20051;-85
2023/06/30 01:45:50;;;;;;;5.90;3.00;;;;;;;;;;4938466;29;20024;-86
2023/06/30 01:48:16;;;;;;;4.72;3.10;;;;;;;;;;4938642;29;20038;-85
2023/06/30 01:50:43;;;;;;;5.97;3.65;;;;;;;;;;4957442;29;20023;-85
2023/06/30 01:53:09;;;;;;;4.13;3.00;;;;;;;;;;4949233;28;20384;-85
2023/06/30 01:55:34;;;;;;;7.38;3.65;;;;;;;;;;4944654;29;20042;-85
2023/06/30 01:57:59;;;;;;;8.73;3.15;;;;;;;;;;4928851;29;20031;-85
2023/06/30 02:00:25;;;;;;;6.07;3.15;;;;;;;;;;4943052;28;20090;-85
2023/06/30 02:02:50;;;;;;;9.73;3.40;;;;;;;;;;4922514;29;20366;-85
2023/06/30 02:05:15;;;;;;;8.48;3.40;;;;;;;;;;4921878;29;20079;-85
2023/06/30 02:11:03;;;;;;;4.25;2.70;;;;;;;;;;4938511;29;20038;-85
2023/06/30 02:13:28;;;;;;;7.45;3.60;;;;;;;;;;4956081;29;20035;-85
2023/06/30 02:15:54;;;;;;;4.95;3.60;;;;;;;;;;4955004;28;20039;-86
2023/06/30 02:18:22;;;;;;;5.07;3.50;;;;;;;;;;4934933;29;20038;-85
2023/06/30 02:20:47;;;;;;;8.52;3.85;;;;;;;;;;4953899;29;20031;-86
2023/06/30 02:23:13;;;;;;;6.97;3.70;;;;;;;;;;4945531;29;20402;-85
2023/06/30 02:25:38;;;;;;;7.10;3.65;;;;;;;;;;4936521;29;20028;-85
2023/06/30 02:28:03;;;;;;;5.55;3.03;;;;;;;;;;4930374;29;20050;-85
2023/06/30 02:30:29;;;;;;;5.70;3.30;;;;;;;;;;4934755;29;20032;-85
2023/06/30 02:32:54;;;;;;;6.00;3.35;;;;;;;;;;4941268;29;20038;-84
2023/06/30 02:35:20;;;;;;;7.20;3.80;;;;;;;;;;4947687;29;20369;-85
2023/06/30 02:37:45;;;;;;;6.85;3.45;;;;;;;;;;4955744;29;20051;-85
2023/06/30 02:40:11;;;;;;;9.77;3.75;;;;;;;;;;4938350;29;20697;-85
2023/06/30 02:42:36;;;;;;;5.45;3.10;;;;;;;;;;4938244;29;20507;-84
2023/06/30 02:45:01;;;;;;;5.38;3.05;;;;;;;;;;4941135;29;20552;-84
2023/06/30 02:47:27;;;;;;;7.28;3.67;;;;;;;;;;4951337;29;20039;-86
2023/06/30 02:49:52;;;;;;;8.82;3.55;;;;;;;;;;4944559;29;20023;-85
2023/06/30 02:52:17;;;;;;;6.63;3.92;;;;;;;;;;4936577;29;20024;-85
2023/06/30 02:54:43;;;;;;;8.50;4.15;;;;;;;;;;4917238;29;20020;-84
2023/06/30 02:57:08;;;;;;;9.32;3.75;;;;;;;;;;4933742;29;20032;-85
2023/06/30 02:59:33;;;;;;;5.18;3.47;;;;;;;;;;4935774;29;20051;-85
2023/06/30 03:02:00;;;;;;;5.88;3.90;;;;;;;;;;4915606;29;20063;-86
2023/06/30 03:04:25;;;;;;;7.07;3.45;;;;;;;;;;4935040;29;20542;-86
2023/06/30 03:06:51;;;;;;;6.05;3.08;;;;;;;;;;4933560;29;20035;-86
2023/06/30 03:09:16;;;;;;;5.80;3.65;;;;;;;;;;4935433;29;20023;-86
2023/06/30 03:11:41;;;;;;;4.60;3.60;;;;;;;;;;4917534;29;20047;-86
2023/06/30 03:14:06;;;;;;;4.60;3.20;;;;;;;;;;4937323;29;20031;-86
2023/06/30 03:16:32;;;;;;;5.45;3.63;;;;;;;;;;4929440;29;20389;-86
2023/06/30 03:18:58;;;;;;;5.53;3.53;;;;;;;;;;4947955;29;20423;-86
2023/06/30 03:21:24;;;;;;;6.25;3.42;;;;;;;;;;4935271;29;20110;-85
2023/06/30 03:23:49;;;;;;;8.05;3.60;;;;;;;;;;4925284;29;20190;-85
2023/06/30 03:26:14;;;;;;;6.00;3.28;;;;;;;;;;4937926;29;20028;-85
2023/06/30 03:28:40;;;;;;;4.25;2.97;;;;;;;;;;4913060;29;20034;-85
2023/06/30 03:31:05;;;;;;;7.75;3.90;;;;;;;;;;4932096;29;20032;-85
2023/06/30 03:33:31;;;;;;;6.00;3.58;;;;;;;;;;4914842;29;20027;-85
2023/06/30 03:35:56;;;;;;;7.82;3.60;;;;;;;;;;4916173;29;20023;-85
2023/06/30 03:38:21;;;;;;;6.53;3.70;;;;;;;;;;4933876;29;20023;-87
2023/06/30 03:40:46;;;;;;;6.55;3.70;;;;;;;;;;4918536;29;20027;-86
2023/06/30 03:43:12;;;;;;;4.88;3.33;;;;;;;;;;4919998;29;20023;-85
2023/06/30 03:45:38;;;;;;;5.28;3.30;;;;;;;;;;4922923;29;20031;-85
2023/06/30 03:48:03;;;;;;;5.32;3.28;;;;;;;;;;4940779;28;20123;-85
2023/06/30 03:50:29;;;;;;;5.50;3.47;;;;;;;;;;4935656;29;20031;-85
2023/06/30 03:52:54;;;;;;;8.85;3.78;;;;;;;;;;4915813;29;20114;-85
2023/06/30 03:55:19;;;;;;;6.40;3.20;;;;;;;;;;4930802;29;20041;-85
2023/06/30 03:57:45;;;;;;;6.80;3.47;;;;;;;;;;4929568;29;20032;-86
2023/06/30 04:00:12;;;;;;;5.18;3.30;;;;;;;;;;4918252;29;20027;-85
2023/06/30 04:02:38;;;;;;;11.90;3.50;;;;;;;;;;4911990;29;20043;-86
2023/06/30 04:05:03;;;;;;;7.57;3.33;;;;;;;;;;4934882;29;20578;-86
2023/06/30 04:07:28;;;;;;;6.85;3.50;;;;;;;;;;4935933;29;20501;-86
2023/06/30 04:09:54;;;;;;;5.18;3.72;;;;;;;;;;4918001;29;20032;-86
2023/06/30 04:12:19;;;;;;;5.72;3.47;;;;;;;;;;4934688;29;20027;-85
2023/06/30 04:14:45;;;;;;;7.57;3.83;;;;;;;;;;4941428;29;20056;-85
2023/06/30 04:17:10;;;;;;;5.88;3.38;;;;;;;;;;4917550;29;20531;-85
2023/06/30 04:19:36;;;;;;;5.47;3.22;;;;;;;;;;4918256;29;20496;-85
2023/06/30 04:22:01;;;;;;;6.75;3.47;;;;;;;;;;4917542;29;20037;-85
2023/06/30 04:24:26;;;;;;;6.45;3.63;;;;;;;;;;4917167;29;20027;-86
2023/06/30 04:26:51;;;;;;;6.70;3.88;;;;;;;;;;4930537;29;20032;-86
2023/06/30 04:29:17;;;;;;;5.32;3.30;;;;;;;;;;4936526;29;20435;-85
2023/06/30 04:31:42;;;;;;;5.63;3.42;;;;;;;;;;4927125;29;20058;-85
2023/06/30 04:34:08;;;;;;;4.95;3.60;;;;;;;;;;4930331;29;20031;-85
2023/06/30 04:36:33;;;;;;;9.90;3.75;;;;;;;;;;4934894;29;20059;-86
2023/06/30 04:38:58;;;;;;;6.85;3.60;;;;;;;;;;4916821;29;20024;-85
2023/06/30 04:41:23;;;;;;;6.55;3.30;;;;;;;;;;4934344;29;20038;-85
2023/06/30 04:43:49;;;;;;;5.30;3.35;;;;;;;;;;4917157;29;20043;-85
2023/06/30 04:46:15;;;;;;;5.22;3.50;;;;;;;;;;4933556;29;20127;-85
2023/06/30 04:48:41;;;;;;;7.40;3.53;;;;;;;;;;4917827;29;20024;-85
2023/06/30 04:51:06;;;;;;;5.15;3.58;;;;;;;;;;4953081;29;20023;-85
2023/06/30 04:53:32;;;;;;;6.15;3.67;;;;;;;;;;4939557;29;20028;-85
2023/06/30 04:55:57;;;;;;;8.55;3.85;;;;;;;;;;4936153;29;20485;-85
2023/06/30 04:58:23;;;;;;;10.68;3.70;;;;;;;;;;4936736;29;20020;-85
2023/06/30 05:00:49;;;;;;;5.53;3.40;;;;;;;;;;4936585;29;20099;-85
2023/06/30 05:03:15;;;;;;;9.40;3.40;;;;;;;;;;4940021;29;20474;-85
2023/06/30 05:05:40;;;;;;;7.10;3.72;;;;;;;;;;4953960;29;20091;-86
2023/06/30 05:08:05;;;;;;;7.07;3.33;;;;;;;;;;4954024;29;20024;-85
2023/06/30 05:10:31;;;;;;;4.75;3.50;;;;;;;;;;4959980;29;20027;-85
2023/06/30 05:12:56;;;;;;;7.03;3.50;;;;;;;;;;4961647;29;20055;-86
2023/06/30 05:15:21;;;;;;;13.95;3.50;;;;;;;;;;4951264;28;20387;-86
2023/06/30 05:17:47;;;;;;;7.03;3.42;;;;;;;;;;4938599;29;20544;-86
2023/06/30 05:20:12;;;;;;;15.23;3.70;;;;;;;;;;4945211;29;20042;-87
2023/06/30 05:22:38;;;;;;;6.95;3.28;;;;;;;;;;4940414;29;20118;-87
2023/06/30 05:25:06;;;;;;;6.38;4.10;;;;;;;;;;4958171;29;20055;-87
2023/06/30 05:27:31;;;;;;;15.88;4.10;;;;;;;;;;4941167;29;20031;-87
2023/06/30 05:29:56;;;;;;;7.68;4.22;;;;;;;;;;4926423;29;20042;-86
2023/06/30 05:32:22;;;;;;;8.77;3.65;;;;;;;;;;4937590;29;20038;-86
2023/06/30 05:34:49;;;;;;;7.78;4.40;;;;;;;;;;4937338;29;20035;-86
2023/06/30 05:37:14;;;;;;;6.40;3.83;;;;;;;;;;4946118;29;20026;-86
2023/06/30 05:39:40;;;;;;;6.80;4.10;;;;;;;;;;4937978;29;20015;-87
2023/06/30 05:42:05;;;;;;;10.18;4.55;;;;;;;;;;4938319;29;20055;-87
2023/06/30 05:44:31;;;;;;;10.73;5.00;;;;;;;;;;4935169;29;20027;-86
2023/06/30 05:46:56;;;;;;;9.68;4.20;;;;;;;;;;4928372;29;20075;-86
2023/06/30 05:49:21;;;;;;;9.27;4.28;;;;;;;;;;4920875;29;20035;-87
2023/06/30 05:51:48;;;;;;;7.30;4.35;;;;;;;;;;4923287;29;20091;-87
2023/06/30 05:54:23;;;;;;;10.15;4.15;;;;;;;;;;4939465;29;20023;-88
2023/06/30 05:57:00;;;;;;;6.03;4.20;;;;;;;;;;4931484;29;20035;-88
2023/06/30 05:59:27;;;;;;;7.88;4.53;;;;;;;;;;4937945;29;20088;-87
2023/06/30 06:01:54;;;;;;;8.43;4.65;;;;;;;;;;4939322;29;20031;-88
2023/06/30 06:04:24;;;;;;;8.27;4.20;;;;;;;;;;4949276;29;20023;-87
2023/06/30 06:06:49;;;;;;;6.68;4.22;;;;;;;;;;4936761;29;20028;-88
2023/06/30 06:09:15;;;;;;;9.00;4.50;;;;;;;;;;4938181;29;20039;-86
2023/06/30 06:11:40;;;;;;;13.20;4.80;;;;;;;;;;4929949;29;20032;-87
2023/06/30 06:14:06;;;;;;;6.07;4.45;;;;;;;;;;4921317;29;20094;-87
2023/06/30 06:16:31;;;;;;;11.52;4.40;;;;;;;;;;4938131;29;20062;-88
2023/06/30 06:18:57;;;;;;;6.43;3.95;;;;;;;;;;4939781;29;20027;-88
2023/06/30 06:21:29;;;;;;;7.70;4.90;;;;;;;;;;4922442;29;20034;-88
2023/06/30 06:23:55;;;;;;;8.23;4.53;;;;;;;;;;4940002;29;20068;-87
2023/06/30 06:26:25;;;;;;;10.23;5.22;;;;;;;;;;4940369;29;20028;-88
2023/06/30 06:28:51;;;;;;;7.63;4.80;;;;;;;;;;4940773;29;20521;-88
2023/06/30 06:31:16;;;;;;;9.45;4.90;;;;;;;;;;4929265;29;20039;-88
2023/06/30 06:33:42;;;;;;;9.13;5.13;;;;;;;;;;4922243;29;20060;-88
2023/06/30 06:36:07;;;;;;;6.70;4.65;;;;;;;;;;4920416;29;20429;-87
2023/06/30 06:38:33;;;;;;;6.82;4.70;;;;;;;;;;4937189;29;20032;-87
2023/06/30 06:44:20;;;;;;;11.15;5.30;;;;;;;;;;4930567;29;20042;-88
2023/06/30 06:46:45;;;;;;;14.32;5.57;;;;;;;;;;4914104;29;20445;-88
2023/06/30 06:49:11;;;;;;;8.75;5.00;;;;;;;;;;4931046;29;20053;-88
2023/06/30 06:51:36;;;;;;;7.45;4.93;;;;;;;;;;4916792;28;20020;-88
2023/06/30 06:54:02;;;;;;;9.27;5.18;;;;;;;;;;4942200;29;20031;-87
2023/06/30 06:56:27;;;;;;;10.57;5.53;;;;;;;;;;4938289;29;20486;-87
2023/06/30 06:58:53;;;;;;;8.27;5.28;;;;;;;;;;4936553;29;20478;-88
2023/06/30 07:01:18;;;;;;;11.50;5.82;;;;;;;;;;4919380;29;20607;-87
2023/06/30 07:03:43;;;;;;;13.23;6.13;;;;;;;;;;4915350;29;20058;-87
2023/06/30 07:06:12;;;;;;;11.15;5.43;;;;;;;;;;4937069;29;20114;-88
2023/06/30 07:08:40;;;;;;;9.00;5.32;;;;;;;;;;4945303;28;20101;-88
2023/06/30 07:11:08;;;;;;;7.38;4.40;;;;;;;;;;4932903;29;20118;-88
2023/06/30 07:13:34;;;;;;;9.02;6.13;;;;;;;;;;4935969;28;20397;-88
2023/06/30 07:16:07;;;;;;;10.95;6.10;;;;;;;;;;4921486;29;20027;-88
2023/06/30 07:18:34;;;;;;;11.23;5.78;;;;;;;;;;4942749;28;20042;-88
2023/06/30 07:21:00;;;;;;;6.90;5.40;;;;;;;;;;4932730;29;20480;-88
2023/06/30 07:23:26;;;;;;;8.95;5.70;;;;;;;;;;4938889;28;20035;-88
2023/06/30 07:25:51;;;;;;;8.25;4.95;;;;;;;;;;4936662;29;20483;-88
2023/06/30 07:28:16;;;;;;;9.45;5.40;;;;;;;;;;4936999;29;20371;-88
2023/06/30 07:30:42;;;;;;;10.73;5.55;;;;;;;;;;4916217;29;20625;-87
2023/06/30 07:33:08;;;;;;;9.60;4.53;;;;;;;;;;4938432;29;20426;-87
2023/06/30 07:35:33;;;;;;;7.18;4.93;;;;;;;;;;4936961;29;20019;-87
2023/06/30 07:37:58;;;;;;;9.77;5.18;;;;;;;;;;4920953;29;20035;-87
2023/06/30 07:40:24;;;;;;;10.48;5.28;;;;;;;;;;4923110;29;20454;-86
2023/06/30 07:42:49;;;;;;;6.68;4.72;;;;;;;;;;4937131;29;20031;-88
2023/06/30 07:45:18;;;;;;;10.45;4.88;;;;;;;;;;4928038;29;20075;-87
2023/06/30 07:47:45;;;;;;;10.15;5.45;;;;;;;;;;4929369;29;20051;-87
2023/06/30 07:50:12;;;;;;;14.43;6.38;;;;;;;;;;4953063;29;20118;-86
2023/06/30 07:52:42;;;;;;;9.35;6.05;;;;;;;;;;4945709;28;20027;-86
2023/06/30 07:55:08;;;;;;;8.60;5.85;;;;;;;;;;4927689;29;20051;-86
2023/06/30 07:57:34;;;;;;;10.35;6.60;;;;;;;;;;4919449;29;20126;-88
2023/06/30 08:00:00;;;;;;;10.88;6.63;;;;;;;;;;4939932;29;20047;-90
2023/06/30 08:02:25;;;;;;;14.05;7.20;;;;;;;;;;4922094;29;20486;-89
2023/06/30 08:04:51;;;;;;;15.95;7.75;;;;;;;;;;4939550;29;20027;-90
2023/06/30 08:07:16;;;;;;;16.30;8.60;;;;;;;;;;4936415;29;20034;-88
2023/06/30 08:09:41;;;;;;;15.05;8.23;;;;;;;;;;4917817;29;20122;-90
2023/06/30 08:12:08;;;;;;;21.02;9.60;;;;;;;;;;4943017;29;20035;-88
2023/06/30 08:14:33;;;;;;;18.58;9.07;;;;;;;;;;4970036;28;20034;-89
2023/06/30 08:16:58;;;;;;;17.05;8.52;;;;;;;;;;4941349;29;20032;-89
2023/06/30 08:19:24;;;;;;;15.63;9.07;;;;;;;;;;4928154;29;20023;-90
2023/06/30 08:21:49;;;;;;;23.17;10.30;;;;;;;;;;4929275;29;20036;-90
2023/06/30 08:24:15;;;;;;;16.33;9.55;;;;;;;;;;4934893;29;20027;-90
2023/06/30 08:26:40;;;;;;;17.52;9.95;;;;;;;;;;4921561;29;20066;-89
2023/06/30 08:29:05;;;;;;;16.58;9.85;;;;;;;;;;4920568;29;20466;-88
2023/06/30 08:31:31;;;;;;;17.42;9.13;;;;;;;;;;4921747;29;20119;-89
2023/06/30 08:34:02;;;;;;;20.30;10.32;;;;;;;;;;4917892;29;20034;-89
2023/06/30 08:36:28;;;;;;;18.50;9.43;;;;;;;;;;4955405;29;20023;-89
2023/06/30 08:38:53;;;;;;;19.00;10.05;;;;;;;;;;4939592;28;20045;-89
2023/06/30 08:41:19;;;;;;;18.50;9.43;;;;;;;;;;4939020;29;20358;-88
2023/06/30 08:43:45;;;;;;;18.40;10.25;;;;;;;;;;4932919;29;20033;-88
2023/06/30 08:46:10;;;;;;;16.48;9.35;;;;;;;;;;4938351;29;20027;-88
2023/06/30 08:48:36;;;;;;;18.15;9.38;;;;;;;;;;4921123;29;20031;-88
2023/06/30 08:51:02;;;;;;;18.23;10.38;;;;;;;;;;4933283;29;20058;-88
2023/06/30 08:53:30;;;;;;;21.45;9.68;;;;;;;;;;4920486;29;20114;-89
2023/06/30 08:55:58;;;;;;;17.05;9.68;;;;;;;;;;4923426;29;20478;-89
2023/06/30 08:58:37;;;;;;;19.13;9.38;;;;;;;;;;4940055;29;20028;-88
2023/06/30 09:01:28;;;;;;;18.13;10.32;;;;;;;;;;4939912;29;20034;-90
2023/06/30 09:03:55;;;;;;;17.63;9.68;;;;;;;;;;4939425;29;20031;-90
2023/06/30 09:06:20;;;;;;;19.23;10.00;;;;;;;;;;4937217;29;20036;-89
2023/06/30 09:08:59;;;;;;;16.73;10.23;;;;;;;;;;4921537;29;20023;-88
2023/06/30 09:11:27;;;;;;;18.55;10.02;;;;;;;;;;4937916;29;20111;-89
2023/06/30 09:13:56;;;;;;;19.55;9.52;;;;;;;;;;4937721;29;20051;-89
2023/06/30 09:16:22;;;;;;;18.48;9.45;;;;;;;;;;4937970;29;20122;-89
2023/06/30 09:18:48;;;;;;;16.00;9.80;;;;;;;;;;4923552;29;20450;-89
2023/06/30 09:21:14;;;;;;;16.98;10.15;;;;;;;;;;4922746;29;20035;-89
2023/06/30 09:23:39;;;;;;;15.43;9.13;;;;;;;;;;4915784;29;20039;-89
2023/06/30 09:26:13;;;;;;;15.43;9.45;;;;;;;;;;4948577;29;20110;-89
2023/06/30 09:28:40;;;;;;;16.65;9.15;;;;;;;;;;4923667;29;20396;-90
2023/06/30 09:31:06;;;;;;;13.90;9.10;;;;;;;;;;4936694;29;20508;-88
2023/06/30 09:33:34;;;;;;;14.77;8.93;;;;;;;;;;4920079;29;20060;-89
2023/06/30 09:36:00;;;;;;;20.75;10.82;;;;;;;;;;4936373;29;20075;-89
2023/06/30 09:38:28;;;;;;;17.13;9.75;;;;;;;;;;4935273;29;20027;-88
2023/06/30 09:40:54;;;;;;;18.48;9.60;;;;;;;;;;4940543;28;20031;-87
2023/06/30 09:43:21;;;;;;;17.40;8.90;;;;;;;;;;4927882;29;20034;-87
2023/06/30 09:45:59;;;;;;;18.08;9.68;;;;;;;;;;4919449;29;20027;-86
2023/06/30 09:48:41;;;;;;;19.08;9.73;;;;;;;;;;4933622;29;20112;-86
2023/06/30 09:51:08;;;;;;;13.70;7.75;;;;;;;;;;4929815;29;20024;-86
2023/06/30 09:53:38;;;;;;;11.60;7.85;;;;;;;;;;4935485;28;20070;-86
2023/06/30 09:56:04;;;;;;;13.60;8.27;;;;;;;;;;4937006;29;20027;-87
2023/06/30 09:58:30;;;;;;;14.07;8.18;;;;;;;;;;4918714;29;20051;-87
2023/06/30 10:00:57;;;;;;;13.82;8.15;;;;;;;;;;4922718;29;20023;-88
2023/06/30 10:03:23;;;;;;;15.18;8.77;;;;;;;;;;4942937;29;20035;-88
2023/06/30 10:05:48;;;;;;;14.43;9.00;;;;;;;;;;4960833;29;20035;-89
2023/06/30 10:08:40;;;;;;;12.43;8.35;;;;;;;;;;4945499;29;20578;-89
2023/06/30 10:11:07;;;;;;;12.32;8.75;;;;;;;;;;4935868;29;20103;-89
2023/06/30 10:13:34;;;;;;;12.73;8.38;;;;;;;;;;4927649;29;20082;-88
2023/06/30 10:15:59;;;;;;;14.05;8.93;;;;;;;;;;4937055;29;20023;-88
2023/06/30 10:18:25;;;;;;;14.80;9.02;;;;;;;;;;4937259;29;20032;-87
2023/06/30 10:20:50;;;;;;;18.73;10.90;;;;;;;;;;4916659;29;20058;-87
2023/06/30 10:23:19;;;;;;;15.05;9.43;;;;;;;;;;4920661;29;20028;-87
2023/06/30 10:25:45;;;;;;;16.85;10.10;;;;;;;;;;4922104;29;20055;-86
2023/06/30 10:28:11;;;;;;;19.48;10.35;;;;;;;;;;4952186;29;20032;-86
2023/06/30 10:30:36;;;;;;;17.58;11.38;;;;;;;;;;4956651;29;20031;-86
2023/06/30 10:33:02;;;;;;;18.55;11.55;;;;;;;;;;4952430;29;20028;-87
2023/06/30 10:35:28;;;;;;;21.45;12.82;;;;;;;;;;4943556;29;20064;-87
2023/06/30 10:37:55;;;;;;;20.65;12.70;;;;;;;;;;4943627;29;20058;-87
2023/06/30 10:40:29;;;;;;;24.63;14.20;;;;;;;;;;4954655;29;20027;-87
2023/06/30 10:42:56;;;;;;;24.73;14.27;;;;;;;;;;4943473;29;20115;-86
2023/06/30 10:45:30;;;;;;;25.25;15.73;;;;;;;;;;4937083;29;20505;-87
2023/06/30 10:47:56;;;;;;;27.15;14.88;;;;;;;;;;4927788;29;20023;-88
2023/06/30 10:50:23;;;;;;;25.20;15.65;;;;;;;;;;4916472;29;20386;-88
2023/06/30 10:52:53;;;;;;;28.45;17.77;;;;;;;;;;4918087;29;20028;-87
2023/06/30 10:55:20;;;;;;;25.55;16.60;;;;;;;;;;4917828;29;20028;-88
2023/06/30 10:57:51;;;;;;;26.88;16.77;;;;;;;;;;4900992;29;20083;-87
2023/06/30 11:00:18;;;;;;;24.83;15.30;;;;;;;;;;4917310;29;20028;-87
2023/06/30 11:02:48;;;;;;;25.45;16.40;;;;;;;;;;4929432;29;20027;-87
2023/06/30 11:05:24;;;;;;;29.52;17.17;;;;;;;;;;4942328;29;20034;-86
2023/06/30 11:08:03;;;;;;;28.95;17.42;;;;;;;;;;4918966;29;20609;-87
2023/06/30 11:10:36;;;;;;;27.90;16.70;;;;;;;;;;4936439;29;20030;-87
2023/06/30 11:13:05;;;;;;;26.00;17.00;;;;;;;;;;4919070;29;20536;-87
2023/06/30 11:15:39;;;;;;;28.17;16.33;;;;;;;;;;4936238;29;20020;-87
2023/06/30 11:18:12;;;;;;;30.05;16.83;;;;;;;;;;4919179;29;20494;-87
2023/06/30 11:20:38;;;;;;;26.45;16.55;;;;;;;;;;4915422;29;20027;-88
2023/06/30 11:23:06;;;;;;;26.90;16.42;;;;;;;;;;4918892;29;20036;-88
2023/06/30 11:25:33;;;;;;;26.75;16.67;;;;;;;;;;4932863;29;20584;-87
2023/06/30 11:28:01;;;;;;;25.92;16.55;;;;;;;;;;4936256;29;20359;-87
2023/06/30 11:30:28;;;;;;;27.02;17.00;;;;;;;;;;4918237;29;20030;-87
2023/06/30 11:32:58;;;;;;;26.20;16.27;;;;;;;;;;4931272;29;20028;-88
2023/06/30 11:35:25;;;;;;;25.23;15.05;;;;;;;;;;4934241;29;20022;-88
2023/06/30 11:37:52;;;;;;;28.58;17.15;;;;;;;;;;4946712;28;20031;-88
2023/06/30 11:40:17;;;;;;;26.50;16.10;;;;;;;;;;4929564;29;20066;-88
2023/06/30 11:42:44;;;;;;;27.88;15.05;;;;;;;;;;4937676;29;20023;-88
2023/06/30 11:45:10;;;;;;;24.33;15.60;;;;;;;;;;4936840;29;20031;-88
2023/06/30 11:47:38;;;;;;;24.38;15.35;;;;;;;;;;4919404;29;20575;-88
2023/06/30 11:50:08;;;;;;;26.20;15.65;;;;;;;;;;4918558;29;20067;-88
2023/06/30 11:52:34;;;;;;;27.92;16.20;;;;;;;;;;4931373;29;20035;-88
2023/06/30 11:55:07;;;;;;;29.23;15.88;;;;;;;;;;4937249;29;20535;-88
2023/06/30 11:57:36;;;;;;;25.58;15.65;;;;;;;;;;4947245;29;20035;-88
2023/06/30 12:00:09;;;;;;;27.70;15.82;;;;;;;;;;4938055;29;20030;-90
2023/06/30 12:02:35;;;;;;;24.88;16.52;;;;;;;;;;4937127;29;20118;-88
2023/06/30 12:05:01;;;;;;;24.60;15.55;;;;;;;;;;4937042;28;20171;-88
2023/06/30 12:07:26;;;;;;;27.17;15.98;;;;;;;;;;4936529;29;20063;-88
2023/06/30 12:10:02;;;;;;;24.60;14.80;;;;;;;;;;4939602;29;20027;-87
2023/06/30 12:12:29;;;;;;;26.52;15.95;;;;;;;;;;4927217;29;20027;-88
2023/06/30 12:14:56;;;;;;;22.17;14.88;;;;;;;;;;4931626;29;20030;-87
2023/06/30 12:17:25;;;;;;;26.25;14.55;;;;;;;;;;4934752;29;20087;-87
2023/06/30 12:19:51;;;;;;;27.70;15.30;;;;;;;;;;4928889;29;20027;-88
2023/06/30 12:22:25;;;;;;;24.55;14.43;;;;;;;;;;4910490;29;20131;-88
2023/06/30 12:24:55;;;;;;;27.85;15.57;;;;;;;;;;4932754;29;20035;-88
2023/06/30 12:27:21;;;;;;;27.23;15.23;;;;;;;;;;4929908;29;20027;-88
2023/06/30 12:29:46;;;;;;;24.10;14.98;;;;;;;;;;4939831;29;20546;-88
2023/06/30 12:32:15;;;;;;;24.17;15.50;;;;;;;;;;4916829;29;20032;-88
2023/06/30 12:34:40;;;;;;;26.17;15.02;;;;;;;;;;4917695;29;20024;-89
2023/06/30 12:37:06;;;;;;;23.77;14.98;;;;;;;;;;4918311;29;20427;-88
2023/06/30 12:39:32;;;;;;;26.60;15.68;;;;;;;;;;4938230;29;20027;-87
2023/06/30 12:41:57;;;;;;;26.60;14.60;;;;;;;;;;4942869;29;20107;-88
2023/06/30 12:44:23;;;;;;;25.27;15.90;;;;;;;;;;4927455;29;20028;-88
2023/06/30 12:47:05;;;;;;;26.65;15.73;;;;;;;;;;4939775;28;20476;-87
2023/06/30 12:49:31;;;;;;;30.35;16.38;;;;;;;;;;4941672;29;20549;-88
2023/06/30 12:51:57;;;;;;;27.13;16.05;;;;;;;;;;4933909;28;20051;-87
2023/06/30 12:54:23;;;;;;;24.25;14.98;;;;;;;;;;4940312;29;20023;-87
2023/06/30 12:56:49;;;;;;;24.67;14.63;;;;;;;;;;4942941;28;20477;-86
2023/06/30 13:22:54;;;;;;;31.92;16.40;;;;;;;;;;4916773;29;20293;-88
2023/06/30 13:25:20;;;;;;;23.90;14.52;;;;;;;;;;4928561;29;20058;-88
2023/06/30 13:27:46;;;;;;;23.85;15.27;;;;;;;;;;4916498;29;20645;-88
2023/06/30 13:30:11;;;;;;;27.30;15.55;;;;;;;;;;4930610;29;20051;-88
2023/06/30 13:32:39;;;;;;;24.33;14.57;;;;;;;;;;4920790;29;20039;-88
2023/06/30 13:35:05;;;;;;;29.60;15.10;;;;;;;;;;4944570;28;20075;-90
2023/06/30 13:37:31;;;;;;;38.90;14.60;;;;;;;;;;4920530;29;20095;-88
2023/06/30 13:39:56;;;;;;;24.77;14.05;;;;;;;;;;4920366;29;20591;-88
2023/06/30 13:42:22;;;;;;;24.13;14.90;;;;;;;;;;4920499;29;20028;-88
2023/06/30 13:44:47;;;;;;;25.35;14.98;;;;;;;;;;4936655;29;20023;-88
2023/06/30 13:47:12;;;;;;;24.67;15.20;;;;;;;;;;4918006;29;20054;-88
2023/06/30 13:49:38;;;;;;;20.50;13.43;;;;;;;;;;4936708;29;20031;-88
2023/06/30 13:52:03;;;;;;;23.45;13.98;;;;;;;;;;4919736;29;20023;-88
2023/06/30 13:54:30;;;;;;;21.42;13.15;;;;;;;;;;4936831;29;20027;-88
2023/06/30 13:56:56;;;;;;;19.42;11.88;;;;;;;;;;4938151;29;20478;-88
2023/06/30 13:59:21;;;;;;;23.88;13.00;;;;;;;;;;4920058;29;20026;-88
2023/06/30 14:01:47;;;;;;;20.67;12.23;;;;;;;;;;4954319;29;20027;-87
2023/06/30 14:04:16;;;;;;;25.33;12.95;;;;;;;;;;4938836;29;20027;-87
2023/06/30 14:06:41;;;;;;;21.75;14.10;;;;;;;;;;4923266;29;20031;-88
2023/06/30 14:09:10;;;;;;;22.73;13.48;;;;;;;;;;4936812;29;20052;-87
2023/06/30 14:11:39;;;;;;;21.15;11.95;;;;;;;;;;4949406;29;20031;-87
2023/06/30 14:14:05;;;;;;;18.58;11.82;;;;;;;;;;4932678;29;20032;-89
2023/06/30 14:16:32;;;;;;;23.75;13.85;;;;;;;;;;4923410;29;20026;-88
2023/06/30 14:18:57;;;;;;;23.45;14.02;;;;;;;;;;4937586;29;20027;-87
2023/06/30 14:21:22;;;;;;;25.23;14.13;;;;;;;;;;4921145;29;20525;-87
2023/06/30 14:23:48;;;;;;;25.13;14.45;;;;;;;;;;4929272;29;20413;-87
2023/06/30 14:26:13;;;;;;;23.23;13.30;;;;;;;;;;4920779;29;20031;-87
2023/06/30 14:28:39;;;;;;;23.38;14.18;;;;;;;;;;4939489;29;20067;-88
2023/06/30 14:31:04;;;;;;;22.15;13.18;;;;;;;;;;4937444;29;20027;-87
2023/06/30 14:33:33;;;;;;;25.05;11.85;;;;;;;;;;4925360;29;20043;-87
2023/06/30 14:35:58;;;;;;;20.45;12.25;;;;;;;;;;4925205;29;20039;-85
2023/06/30 14:38:25;;;;;;;19.70;11.63;;;;;;;;;;4930434;29;20091;-85
2023/06/30 14:40:50;;;;;;;25.27;13.68;;;;;;;;;;4952669;29;20110;-85
2023/06/30 14:43:16;;;;;;;20.08;12.65;;;;;;;;;;4929228;29;20106;-87
2023/06/30 14:45:41;;;;;;;21.48;12.35;;;;;;;;;;4936787;29;20123;-89
2023/06/30 14:48:08;;;;;;;19.75;10.95;;;;;;;;;;4939250;29;20067;-88
2023/06/30 14:50:38;;;;;;;18.52;10.48;;;;;;;;;;4937394;29;20036;-87
2023/06/30 14:53:03;;;;;;;18.17;11.02;;;;;;;;;;4922207;29;20020;-88
2023/06/30 14:55:29;;;;;;;17.17;10.45;;;;;;;;;;4936233;29;20023;-87
2023/06/30 14:57:54;;;;;;;13.90;9.43;;;;;;;;;;4937055;29;20030;-88
2023/06/30 15:00:20;;;;;;;17.38;10.73;;;;;;;;;;4936953;29;20390;-87